Time;durP1;ratioP1;P1;durP2;ratioP2;P2;SDS_P1;SDS_P2;PMS_P1;PMS_P2;Temp;Humidity;BMP_temperature;BMP_pressure;BME280_temperature;BME280_humidity;BME280_pressure;Samples;Min_cycle;Max_cycle;Signal;HPM_P1;HPM_P2
2021/12/22 00:01:18;;;;;;;48.17;24.48;;;;;;;-4.61;100.00;102548.88;4996954;28;20034;-55
2021/12/22 00:03:47;;;;;;;45.40;24.20;;;;;;;-4.64;100.00;102536.53;4996153;28;20498;-54
2021/12/22 00:06:14;;;;;;;49.92;27.58;;;;;;;-4.65;99.87;102544.78;4995300;28;20069;-55
2021/12/22 00:08:39;;;;;;;51.28;25.05;;;;;;;-4.68;100.00;102547.84;4996153;28;20158;-54
2021/12/22 00:11:04;;;;;;;51.25;26.20;;;;;;;-4.69;100.00;102549.66;4996586;28;20109;-54
2021/12/22 00:13:30;;;;;;;49.47;26.33;;;;;;;-4.70;99.97;102551.53;4996140;28;20116;-54
2021/12/22 00:15:55;;;;;;;44.03;23.92;;;;;;;-4.72;99.88;102541.88;4996320;28;20026;-55
2021/12/22 00:18:20;;;;;;;45.40;25.38;;;;;;;-4.77;100.00;102547.75;4996116;28;20042;-54
2021/12/22 00:20:46;;;;;;;46.65;24.15;;;;;;;-4.77;99.86;102550.47;4995611;28;20390;-55
2021/12/22 00:23:11;;;;;;;42.45;23.60;;;;;;;-4.80;100.00;102549.94;4996213;28;20034;-54
2021/12/22 00:25:36;;;;;;;45.22;23.27;;;;;;;-4.83;100.00;102553.00;4994943;28;20500;-55
2021/12/22 00:28:03;;;;;;;48.58;23.90;;;;;;;-4.86;99.65;102555.00;4995101;28;20035;-54
2021/12/22 00:30:28;;;;;;;51.63;23.88;;;;;;;-4.89;100.00;102549.91;4996251;28;20491;-55
2021/12/22 00:33:01;;;;;;;54.22;24.92;;;;;;;-4.97;99.54;102543.63;4996037;28;20106;-55
2021/12/22 00:35:30;;;;;;;47.17;25.13;;;;;;;-4.96;100.00;102554.28;4996302;28;20030;-57
2021/12/22 00:37:55;;;;;;;45.20;23.73;;;;;;;-4.97;99.44;102541.78;4996124;28;20133;-54
2021/12/22 00:40:20;;;;;;;49.92;23.73;;;;;;;-4.98;99.98;102537.38;4995525;28;20389;-55
2021/12/22 00:42:46;;;;;;;45.95;23.05;;;;;;;-4.99;100.00;102535.69;4994233;28;20042;-55
2021/12/22 00:45:11;;;;;;;45.05;23.80;;;;;;;-4.99;99.75;102541.09;4995692;28;20087;-57
2021/12/22 00:47:37;;;;;;;47.42;24.92;;;;;;;-5.01;99.82;102540.41;4995174;28;20043;-54
2021/12/22 00:50:04;;;;;;;49.72;25.45;;;;;;;-5.06;100.00;102540.03;4995867;28;20042;-54
2021/12/22 00:52:29;;;;;;;46.38;24.35;;;;;;;-5.12;99.56;102535.28;4995709;28;20040;-53
2021/12/22 00:54:55;;;;;;;46.20;24.13;;;;;;;-5.07;99.87;102549.13;4995150;28;20030;-53
2021/12/22 00:57:20;;;;;;;46.47;24.92;;;;;;;-5.09;99.87;102546.59;4995512;28;20022;-54
2021/12/22 00:59:47;;;;;;;46.75;23.13;;;;;;;-5.11;99.55;102540.50;4995189;28;20033;-54
2021/12/22 01:02:16;;;;;;;45.55;22.92;;;;;;;-5.18;99.48;102536.78;4995211;28;20061;-53
2021/12/22 01:04:41;;;;;;;48.53;23.30;;;;;;;-5.11;99.43;102547.78;4995621;28;20026;-53
2021/12/22 01:07:07;;;;;;;48.08;25.15;;;;;;;-5.11;100.00;102555.88;4995515;28;20386;-53
2021/12/22 01:09:33;;;;;;;44.25;22.92;;;;;;;-5.11;99.73;102554.00;4995225;28;20030;-53
2021/12/22 01:11:59;;;;;;;44.60;24.25;;;;;;;-5.13;99.72;102547.09;4995544;28;20026;-54
2021/12/22 01:14:25;;;;;;;50.78;24.70;;;;;;;-5.13;99.72;102549.78;4994604;28;20038;-54
2021/12/22 01:16:54;;;;;;;46.17;22.90;;;;;;;-5.14;100.00;102550.78;4995241;28;20026;-54
2021/12/22 01:19:28;;;;;;;44.17;23.92;;;;;;;-5.15;99.82;102559.88;4995360;28;20023;-55
2021/12/22 01:22:05;;;;;;;44.25;22.80;;;;;;;-5.18;99.48;102555.66;4995330;28;20026;-53
2021/12/22 01:24:34;;;;;;;44.70;23.45;;;;;;;-5.19;99.56;102548.56;4995460;28;20030;-55
2021/12/22 01:27:10;;;;;;;47.55;24.73;;;;;;;-5.22;100.00;102543.47;4995325;28;20026;-55
2021/12/22 01:29:38;;;;;;;47.30;23.30;;;;;;;-5.21;100.00;102543.34;4994068;28;20429;-54
2021/12/22 01:32:06;;;;;;;47.85;23.42;;;;;;;-5.21;99.58;102537.06;4995087;28;20057;-55
2021/12/22 01:34:31;;;;;;;45.22;24.75;;;;;;;-5.20;100.00;102538.78;4994689;28;20026;-55
2021/12/22 01:36:57;;;;;;;49.38;23.77;;;;;;;-5.19;100.00;102549.41;4995432;28;20057;-55
2021/12/22 01:39:22;;;;;;;45.13;24.98;;;;;;;-5.20;100.00;102544.19;4995067;28;20108;-55
2021/12/22 01:41:48;;;;;;;42.55;23.88;;;;;;;-5.21;100.00;102543.34;4994275;28;20454;-57
2021/12/22 01:44:49;;;;;;;44.72;23.65;;;;;;;-5.22;100.00;102540.78;4993809;28;20042;-55
2021/12/22 01:49:59;;;;;;;42.60;23.17;;;;;;;-5.22;99.65;102540.78;4993770;28;20524;-54
2021/12/22 01:52:25;;;;;;;47.22;24.42;;;;;;;-5.22;99.66;102540.78;4993799;28;20030;-56
2021/12/22 01:54:58;;;;;;;42.60;23.08;;;;;;;-5.24;99.83;102538.25;4993760;28;20042;-56
2021/12/22 01:57:23;;;;;;;47.47;24.08;;;;;;;-5.26;99.85;102529.47;4994518;28;20405;-55
2021/12/22 01:59:50;;;;;;;44.22;23.33;;;;;;;-5.25;99.91;102531.16;4993827;28;20474;-54
2021/12/22 02:02:16;;;;;;;46.53;24.08;;;;;;;-5.23;99.88;102534.56;4993087;28;20037;-54
2021/12/22 02:04:42;;;;;;;43.58;24.15;;;;;;;-5.23;99.87;102539.09;4993821;28;20061;-54
2021/12/22 02:07:08;;;;;;;49.47;23.85;;;;;;;-5.23;99.71;102537.25;4993490;28;20057;-54
2021/12/22 02:11:59;;;;;;;45.90;23.52;;;;;;;-5.25;99.46;102541.94;4993852;28;20041;-54
2021/12/22 02:14:24;;;;;;;49.40;25.73;;;;;;;-5.29;99.29;102537.91;4994086;28;20541;-53
2021/12/22 02:16:49;;;;;;;46.50;23.92;;;;;;;-5.29;99.80;102547.81;4993506;28;20027;-55
2021/12/22 02:19:15;;;;;;;48.47;24.00;;;;;;;-5.32;99.45;102547.13;4993802;28;20026;-55
2021/12/22 02:21:46;;;;;;;43.92;23.35;;;;;;;-5.34;99.99;102542.91;4994049;28;20109;-54
2021/12/22 02:24:12;;;;;;;43.60;24.20;;;;;;;-5.38;99.54;102542.38;4994965;28;20489;-54
2021/12/22 02:26:43;;;;;;;43.08;22.65;;;;;;;-5.37;99.56;102544.06;4994114;28;20034;-54
2021/12/22 02:29:19;;;;;;;46.50;24.33;;;;;;;-5.37;99.35;102548.59;4994535;28;20069;-55
2021/12/22 02:32:01;;;;;;;44.45;24.83;;;;;;;-5.40;99.36;102544.38;4993276;28;20022;-55
2021/12/22 02:34:27;;;;;;;42.58;21.80;;;;;;;-5.39;100.00;102546.06;4994549;28;20053;-54
2021/12/22 02:36:58;;;;;;;44.05;23.00;;;;;;;-5.39;99.95;102547.94;4993527;28;20470;-53
2021/12/22 02:39:23;;;;;;;45.63;23.27;;;;;;;-5.40;99.81;102548.94;4994116;28;20065;-55
2021/12/22 02:41:50;;;;;;;42.38;23.85;;;;;;;-5.41;100.00;102539.97;4993724;28;20045;-54
2021/12/22 02:44:15;;;;;;;44.92;22.83;;;;;;;-5.41;100.00;102539.16;4993928;28;20026;-56
2021/12/22 02:46:40;;;;;;;45.83;23.42;;;;;;;-5.44;100.00;102539.47;4993715;28;20037;-55
2021/12/22 02:49:08;;;;;;;49.92;25.08;;;;;;;-5.43;99.84;102539.28;4992678;28;20436;-55
2021/12/22 02:51:34;;;;;;;43.90;23.55;;;;;;;-5.38;100.00;102534.28;4992452;28;20034;-54
2021/12/22 02:54:10;;;;;;;47.60;24.33;;;;;;;-5.39;100.00;102534.44;4993368;28;20082;-56
2021/12/22 03:04:12;;;;;;;47.78;24.15;;;;;;;-5.43;99.68;102536.59;4993353;28;20078;-56
2021/12/22 03:09:25;;;;;;;44.72;22.63;;;;;;;-5.48;99.33;102537.06;4992781;28;20030;-56
2021/12/22 03:11:52;;;;;;;49.42;25.73;;;;;;;-5.50;99.50;102543.63;4992689;28;20296;-55
2021/12/22 03:14:19;;;;;;;44.05;23.60;;;;;;;-5.52;100.00;102551.03;4992592;28;20030;-55
2021/12/22 03:16:45;;;;;;;42.38;21.90;;;;;;;-5.54;99.28;102550.34;4992615;28;20034;-55
2021/12/22 03:19:12;;;;;;;45.85;22.85;;;;;;;-5.69;99.59;102525.78;4995007;28;20022;-55
2021/12/22 03:21:40;;;;;;;43.92;22.42;;;;;;;-5.59;99.96;102550.81;4997280;28;20537;-56
2021/12/22 03:24:06;;;;;;;41.80;22.77;;;;;;;-5.59;99.61;102556.22;4997006;28;20072;-55
2021/12/22 03:26:32;;;;;;;41.70;23.17;;;;;;;-5.58;99.91;102549.81;4997491;28;20077;-55
2021/12/22 03:28:57;;;;;;;45.80;22.40;;;;;;;-5.57;99.93;102558.75;4997775;28;20061;-55
2021/12/22 03:31:22;;;;;;;47.40;23.65;;;;;;;-5.56;99.58;102561.28;4997137;28;20022;-55
2021/12/22 03:33:48;;;;;;;44.08;22.70;;;;;;;-5.57;99.79;102556.06;4997119;28;20037;-55
2021/12/22 03:36:13;;;;;;;43.28;23.48;;;;;;;-5.57;99.44;102558.75;4996588;28;20509;-55
2021/12/22 03:38:39;;;;;;;43.50;23.02;;;;;;;-5.57;99.46;102558.75;4996257;28;20157;-53
2021/12/22 03:41:07;;;;;;;47.72;22.77;;;;;;;-5.64;99.86;102545.03;4996803;28;20093;-55
2021/12/22 03:43:33;;;;;;;44.95;23.67;;;;;;;-5.59;99.93;102550.81;4996693;28;20026;-55
2021/12/22 03:45:59;;;;;;;41.78;22.58;;;;;;;-5.62;99.92;102547.59;4996069;28;20030;-55
2021/12/22 03:48:25;;;;;;;46.90;21.85;;;;;;;-5.62;99.30;102544.91;4996257;28;20371;-54
2021/12/22 03:50:51;;;;;;;47.22;22.80;;;;;;;-5.62;99.49;102550.28;4995481;28;20478;-54
2021/12/22 03:53:17;;;;;;;47.10;22.08;;;;;;;-5.65;99.79;102552.28;4996840;28;20026;-54
2021/12/22 03:55:42;;;;;;;48.05;23.83;;;;;;;-5.67;99.33;102554.28;4996319;28;20034;-54
2021/12/22 03:58:07;;;;;;;43.75;22.73;;;;;;;-5.66;99.03;102555.13;4996648;28;20035;-53
2021/12/22 04:00:36;;;;;;;42.15;22.33;;;;;;;-5.66;99.53;102544.34;4996445;28;20441;-54
2021/12/22 04:03:02;;;;;;;45.17;22.58;;;;;;;-5.67;99.61;102538.13;4996503;28;20069;-54
2021/12/22 04:05:28;;;;;;;42.70;22.92;;;;;;;-5.67;99.56;102548.06;4996884;28;20057;-54
2021/12/22 04:07:55;;;;;;;43.30;22.48;;;;;;;-5.67;99.50;102546.19;4997621;28;20034;-55
2021/12/22 04:10:22;;;;;;;40.85;22.40;;;;;;;-5.67;99.81;102550.75;4996671;28;20038;-54
2021/12/22 04:12:51;;;;;;;44.28;22.15;;;;;;;-5.80;99.90;102524.19;4996310;28;20037;-54
2021/12/22 04:15:17;;;;;;;43.67;22.05;;;;;;;-5.70;99.74;102549.19;4996429;28;20045;-54
2021/12/22 04:17:42;;;;;;;41.50;22.40;;;;;;;-5.69;99.03;102541.97;4996562;28;20034;-53
2021/12/22 04:20:09;;;;;;;41.22;22.70;;;;;;;-5.73;99.02;102541.44;4996509;28;20045;-53
2021/12/22 04:22:34;;;;;;;41.90;22.55;;;;;;;-5.73;99.37;102541.44;4996315;28;20069;-54
2021/12/22 04:25:00;;;;;;;43.03;23.23;;;;;;;-5.72;99.90;102539.59;4996654;28;20101;-53
2021/12/22 04:27:25;;;;;;;40.20;21.02;;;;;;;-5.76;99.77;102535.53;4995972;28;20053;-54
2021/12/22 04:29:50;;;;;;;42.85;21.67;;;;;;;-5.76;99.65;102536.34;4995186;28;20031;-55
2021/12/22 04:32:16;;;;;;;43.28;23.02;;;;;;;-5.74;99.30;102531.66;4996319;28;20041;-55
2021/12/22 04:34:41;;;;;;;39.45;20.75;;;;;;;-5.76;99.24;102530.97;4996069;28;20077;-55
2021/12/22 04:37:06;;;;;;;45.25;24.02;;;;;;;-5.73;99.82;102527.97;4996071;28;20507;-55
2021/12/22 04:39:33;;;;;;;43.85;23.00;;;;;;;-5.75;99.67;102524.56;4996097;28;20058;-55
2021/12/22 04:41:59;;;;;;;42.35;22.17;;;;;;;-5.75;99.31;102529.09;4995982;28;20031;-55
2021/12/22 04:44:25;;;;;;;41.30;21.77;;;;;;;-5.77;99.46;102526.56;4995658;28;20035;-54
2021/12/22 04:46:50;;;;;;;43.05;23.52;;;;;;;-5.77;99.13;102514.94;4995196;28;20089;-51
2021/12/22 04:49:15;;;;;;;39.80;21.42;;;;;;;-5.78;99.60;102510.56;4995333;28;20047;-54
2021/12/22 04:51:48;;;;;;;42.78;22.88;;;;;;;-5.77;99.70;102517.66;4995567;28;20359;-53
2021/12/22 04:54:19;;;;;;;39.70;21.35;;;;;;;-5.76;99.49;102516.66;4996030;28;20034;-55
2021/12/22 04:56:45;;;;;;;39.67;21.05;;;;;;;-5.78;99.07;102508.69;4996044;28;20081;-55
2021/12/22 04:59:11;;;;;;;42.25;22.40;;;;;;;-5.76;98.90;102508.56;4995431;28;20030;-54
2021/12/22 05:01:36;;;;;;;43.75;22.40;;;;;;;-5.77;99.41;102512.25;4995591;28;20030;-54
2021/12/22 05:04:02;;;;;;;40.42;21.25;;;;;;;-5.76;99.21;102505.88;4995257;28;20029;-55
2021/12/22 05:06:27;;;;;;;40.80;21.90;;;;;;;-5.77;99.28;102502.31;4995647;28;20145;-54
2021/12/22 05:08:52;;;;;;;45.20;22.65;;;;;;;-5.77;99.42;102504.16;4995653;28;20030;-53
2021/12/22 05:11:18;;;;;;;44.22;22.48;;;;;;;-5.78;98.97;102505.16;4995323;28;20037;-56
2021/12/22 05:13:43;;;;;;;43.47;22.58;;;;;;;-5.80;99.01;102508.00;4995076;28;20038;-56
2021/12/22 05:16:16;;;;;;;43.25;22.98;;;;;;;-5.82;99.27;102504.63;4995020;28;20037;-55
2021/12/22 05:18:57;;;;;;;41.78;21.67;;;;;;;-5.82;99.31;102496.56;4995504;28;20102;-56
2021/12/22 05:21:24;;;;;;;42.55;21.70;;;;;;;-5.81;99.87;102501.78;4995562;28;20031;-55
2021/12/22 05:23:53;;;;;;;42.88;23.90;;;;;;;-5.80;99.24;102497.22;4995462;28;20022;-56
2021/12/22 05:26:19;;;;;;;45.40;23.83;;;;;;;-5.80;100.00;102510.69;4995249;28;20057;-55
2021/12/22 05:28:45;;;;;;;40.28;21.65;;;;;;;-5.81;99.95;102507.16;4994554;28;20027;-54
2021/12/22 05:31:10;;;;;;;43.58;23.00;;;;;;;-5.81;99.39;102500.94;4994183;28;20375;-55
2021/12/22 05:33:35;;;;;;;41.30;22.55;;;;;;;-5.80;100.00;102500.78;4993205;28;20033;-54
2021/12/22 05:36:01;;;;;;;37.88;22.40;;;;;;;-5.80;99.66;102500.78;4994426;28;20105;-55
2021/12/22 05:38:26;;;;;;;41.28;22.48;;;;;;;-5.80;100.00;102506.16;4994396;28;20390;-52
2021/12/22 05:40:51;;;;;;;39.03;22.95;;;;;;;-5.78;100.00;102497.91;4994847;28;20023;-53
2021/12/22 05:43:17;;;;;;;41.88;21.67;;;;;;;-5.78;100.00;102489.81;4994836;28;20030;-53
2021/12/22 05:45:42;;;;;;;42.08;23.48;;;;;;;-5.77;99.95;102490.69;4994790;28;20022;-53
2021/12/22 05:48:08;;;;;;;40.08;21.52;;;;;;;-5.75;100.00;102491.34;4994757;28;20509;-54
2021/12/22 05:50:33;;;;;;;41.78;21.08;;;;;;;-5.74;100.00;102483.13;4994533;28;20044;-52
2021/12/22 05:52:59;;;;;;;40.95;22.17;;;;;;;-5.74;100.00;102483.13;4994860;28;20117;-54
2021/12/22 05:55:24;;;;;;;40.50;21.77;;;;;;;-5.74;99.98;102476.88;4994844;28;20512;-54
2021/12/22 05:57:49;;;;;;;39.50;21.45;;;;;;;-5.76;100.00;102479.75;4993374;28;20401;-54
2021/12/22 06:00:15;;;;;;;40.92;22.17;;;;;;;-5.78;100.00;102476.34;4994475;28;20035;-54
2021/12/22 06:02:41;;;;;;;39.85;22.60;;;;;;;-5.77;100.00;102472.66;4994521;28;20031;-54
2021/12/22 06:05:07;;;;;;;41.13;20.67;;;;;;;-5.78;100.00;102475.50;4994397;28;20034;-53
2021/12/22 06:07:32;;;;;;;38.80;20.98;;;;;;;-5.78;99.99;102476.34;4994457;28;20026;-53
2021/12/22 06:09:57;;;;;;;42.65;22.38;;;;;;;-5.77;100.00;102483.44;4994465;28;20088;-51
2021/12/22 06:12:23;;;;;;;38.20;21.75;;;;;;;-5.83;100.00;102474.13;4994266;28;20038;-51
2021/12/22 06:14:48;;;;;;;36.88;21.02;;;;;;;-5.77;100.00;102485.28;4994038;28;20390;-54
2021/12/22 06:17:14;;;;;;;38.25;21.65;;;;;;;-5.78;100.00;102483.59;4994131;28;20058;-54
2021/12/22 06:19:39;;;;;;;41.45;21.70;;;;;;;-5.78;100.00;102491.69;4994323;28;20073;-53
2021/12/22 06:22:05;;;;;;;39.63;21.08;;;;;;;-5.79;100.00;102490.81;4994158;28;20034;-54
2021/12/22 06:24:30;;;;;;;39.67;21.13;;;;;;;-5.78;100.00;102494.38;4994412;28;20113;-54
2021/12/22 06:26:57;;;;;;;37.28;21.05;;;;;;;-5.79;100.00;102496.22;4993798;28;20101;-54
2021/12/22 06:29:22;;;;;;;37.75;20.27;;;;;;;-5.81;100.00;102498.25;4994055;28;20022;-54
2021/12/22 06:31:47;;;;;;;41.35;23.00;;;;;;;-5.82;100.00;102491.16;4994110;28;20037;-51
2021/12/22 06:34:13;;;;;;;40.10;22.42;;;;;;;-5.83;100.00;102482.22;4993804;28;20035;-54
2021/12/22 06:36:39;;;;;;;36.50;21.20;;;;;;;-5.85;100.00;102478.81;4993715;28;20037;-54
2021/12/22 06:39:04;;;;;;;36.83;20.77;;;;;;;-5.85;99.94;102492.28;4994162;28;20489;-53
2021/12/22 06:41:33;;;;;;;37.35;20.63;;;;;;;-5.85;100.00;102486.06;4993822;28;20089;-54
2021/12/22 06:43:59;;;;;;;39.72;20.35;;;;;;;-5.87;99.61;102482.69;4993687;28;20725;-54
2021/12/22 06:46:24;;;;;;;40.47;21.23;;;;;;;-5.88;99.83;102491.75;4994017;28;20073;-54
2021/12/22 06:48:50;;;;;;;39.95;22.23;;;;;;;-5.92;100.00;102495.78;4994199;28;20057;-53
2021/12/22 06:51:15;;;;;;;41.20;21.70;;;;;;;-5.93;99.42;102499.47;4993734;28;20084;-54
2021/12/22 06:53:40;;;;;;;36.78;20.58;;;;;;;-5.95;99.97;102502.34;4993407;28;20114;-53
2021/12/22 06:56:06;;;;;;;37.20;19.90;;;;;;;-5.97;99.58;102505.16;4993917;28;20402;-54
2021/12/22 06:58:31;;;;;;;36.17;19.45;;;;;;;-5.98;99.33;102499.94;4993761;28;20386;-54
2021/12/22 07:00:57;;;;;;;41.03;20.50;;;;;;;-6.00;100.00;102499.28;4993656;28;20038;-54
2021/12/22 07:03:22;;;;;;;34.28;19.92;;;;;;;-6.03;99.56;102503.13;4995367;28;20466;-55
2021/12/22 07:05:47;;;;;;;35.10;19.85;;;;;;;-6.04;99.81;102503.28;4993444;28;20482;-55
2021/12/22 07:08:13;;;;;;;38.85;20.48;;;;;;;-6.06;99.88;102502.59;4993119;28;20096;-55
2021/12/22 07:10:38;;;;;;;36.80;20.08;;;;;;;-6.07;99.33;102498.22;4993651;28;20034;-55
2021/12/22 07:13:06;;;;;;;33.92;19.10;;;;;;;-6.07;99.78;102506.31;4993341;28;20031;-55
2021/12/22 07:15:32;;;;;;;37.58;20.25;;;;;;;-6.08;99.50;102512.69;4993273;28;20030;-57
2021/12/22 07:17:57;;;;;;;38.30;20.90;;;;;;;-6.10;99.45;102499.38;4993433;28;20382;-55
2021/12/22 07:20:23;;;;;;;35.95;20.15;;;;;;;-6.12;99.61;102491.44;4993223;28;20101;-57
2021/12/22 07:22:49;;;;;;;39.33;21.02;;;;;;;-6.12;99.61;102494.13;4993718;28;20030;-55
2021/12/22 07:25:17;;;;;;;40.38;22.63;;;;;;;-6.11;99.64;102481.50;4993019;28;20401;-55
2021/12/22 07:27:42;;;;;;;34.63;22.02;;;;;;;-6.13;100.00;102494.28;4993015;28;20026;-55
2021/12/22 07:30:08;;;;;;;41.17;22.73;;;;;;;-6.13;99.29;102481.66;4993329;28;20036;-56
2021/12/22 07:32:33;;;;;;;37.63;21.13;;;;;;;-6.14;99.75;102495.28;4993197;28;20026;-55
2021/12/22 07:35:13;;;;;;;35.47;20.52;;;;;;;-6.23;100.00;102478.19;4993313;28;20474;-55
2021/12/22 07:37:41;;;;;;;36.13;20.13;;;;;;;-6.14;99.25;102493.44;4993133;28;20042;-55
2021/12/22 07:40:10;;;;;;;39.17;19.60;;;;;;;-6.16;99.21;102495.44;4993436;28;20397;-55
2021/12/22 07:42:36;;;;;;;36.83;20.50;;;;;;;-6.16;99.77;102492.75;4993157;28;20030;-55
2021/12/22 07:45:02;;;;;;;35.92;19.40;;;;;;;-6.16;99.70;102500.84;4993217;28;20084;-55
2021/12/22 07:47:28;;;;;;;35.50;19.83;;;;;;;-6.15;99.72;102485.50;4993201;28;20077;-54
2021/12/22 07:49:53;;;;;;;39.53;20.23;;;;;;;-6.14;99.13;102492.59;4991472;28;20104;-54
2021/12/22 07:52:18;;;;;;;34.92;20.23;;;;;;;-6.13;99.89;102495.13;4992608;28;20088;-55
2021/12/22 07:54:44;;;;;;;38.05;21.08;;;;;;;-6.12;99.55;102488.72;4991838;28;20038;-55
2021/12/22 07:57:09;;;;;;;35.75;20.75;;;;;;;-6.09;99.52;102494.81;4991643;28;20034;-55
2021/12/22 07:59:34;;;;;;;35.08;19.15;;;;;;;-6.09;100.00;102489.44;4992527;28;20023;-55
2021/12/22 08:02:00;;;;;;;36.75;20.38;;;;;;;-6.07;99.59;102487.44;4992687;28;20030;-54
2021/12/22 08:04:25;;;;;;;36.55;19.45;;;;;;;-6.05;99.70;102483.59;4994415;28;20393;-55
2021/12/22 08:06:51;;;;;;;34.25;18.02;;;;;;;-6.04;99.78;102485.28;4996921;28;20058;-55
2021/12/22 08:09:16;;;;;;;33.85;17.92;;;;;;;-6.02;99.67;102480.59;4996531;28;20041;-54
2021/12/22 08:11:42;;;;;;;32.88;17.17;;;;;;;-5.98;99.82;102481.09;4996617;28;20033;-55
2021/12/22 08:14:07;;;;;;;34.92;19.13;;;;;;;-5.99;100.00;102477.53;4995252;28;20022;-55
2021/12/22 08:16:33;;;;;;;33.50;18.10;;;;;;;-5.93;100.00;102476.06;4996619;28;20026;-55
2021/12/22 08:18:58;;;;;;;34.08;17.70;;;;;;;-5.85;100.00;102480.69;4996763;28;20034;-54
2021/12/22 08:21:23;;;;;;;34.90;18.48;;;;;;;-5.80;100.00;102475.66;4996336;28;20038;-54
2021/12/22 08:23:49;;;;;;;31.15;17.17;;;;;;;-5.72;100.00;102477.56;4996659;28;20038;-55
2021/12/22 08:26:14;;;;;;;37.90;17.77;;;;;;;-5.69;100.00;102478.09;4996346;28;20526;-55
2021/12/22 08:28:39;;;;;;;33.60;16.55;;;;;;;-5.60;100.00;102487.09;4996703;28;20038;-55
2021/12/22 08:31:05;;;;;;;32.60;17.48;;;;;;;-5.54;100.00;102486.47;4996050;28;20027;-55
2021/12/22 08:33:33;;;;;;;33.28;17.55;;;;;;;-5.48;100.00;102475.03;4996257;28;20488;-55
2021/12/22 08:38:52;;;;;;;32.95;17.52;;;;;;;-5.38;100.00;102474.06;4996655;28;20130;-55
2021/12/22 08:41:17;;;;;;;34.67;17.88;;;;;;;-5.29;100.00;102473.16;4996174;28;20068;-55
2021/12/22 08:43:43;;;;;;;31.60;16.73;;;;;;;-5.23;100.00;102477.03;4996319;28;20058;-55
2021/12/22 08:46:08;;;;;;;32.20;16.65;;;;;;;-5.21;100.00;102470.47;4996168;28;20060;-55
2021/12/22 08:48:33;;;;;;;29.52;16.20;;;;;;;-5.12;100.00;102473.22;4995995;28;20058;-55
2021/12/22 08:50:59;;;;;;;30.42;17.63;;;;;;;-5.07;100.00;102476.25;4995876;28;20480;-55
2021/12/22 08:53:24;;;;;;;30.58;17.77;;;;;;;-5.04;100.00;102471.38;4996231;28;20034;-55
2021/12/22 08:55:49;;;;;;;40.00;21.38;;;;;;;-4.99;100.00;102483.56;4995914;28;20497;-55
2021/12/22 08:58:14;;;;;;;33.35;17.55;;;;;;;-4.95;100.00;102472.28;4995901;28;20031;-55
2021/12/22 09:00:40;;;;;;;31.95;17.58;;;;;;;-4.89;100.00;102477.03;4996006;28;20501;-56
2021/12/22 09:03:05;;;;;;;33.20;17.38;;;;;;;-4.85;100.00;102474.84;4995846;28;20073;-56
2021/12/22 09:05:30;;;;;;;33.53;18.80;;;;;;;-4.81;99.91;102476.22;4995455;28;20390;-56
2021/12/22 09:07:55;;;;;;;32.42;16.48;;;;;;;-4.76;99.89;102475.72;4995487;28;20073;-56
2021/12/22 09:10:21;;;;;;;34.95;17.90;;;;;;;-4.72;100.00;102479.75;4995541;28;20053;-55
2021/12/22 09:12:47;;;;;;;30.30;16.65;;;;;;;-4.71;100.00;102465.25;4995547;28;20033;-56
2021/12/22 09:15:12;;;;;;;31.80;17.33;;;;;;;-4.65;100.00;102472.72;4994978;28;20113;-56
2021/12/22 09:17:38;;;;;;;30.55;16.42;;;;;;;-4.56;100.00;102476.28;4995366;28;20077;-56
2021/12/22 09:20:03;;;;;;;31.77;17.33;;;;;;;-4.48;100.00;102472.75;4995481;28;20488;-54
2021/12/22 09:22:29;;;;;;;36.58;21.88;;;;;;;-4.44;100.00;102472.25;4996011;28;20030;-55
2021/12/22 09:24:54;;;;;;;33.65;17.85;;;;;;;-4.40;100.00;102475.47;4995360;28;20026;-54
2021/12/22 09:27:19;;;;;;;32.80;16.85;;;;;;;-4.33;100.00;102479.19;4995118;28;20033;-55
2021/12/22 09:29:45;;;;;;;31.60;16.88;;;;;;;-4.28;100.00;102478.69;4995223;28;20075;-55
2021/12/22 09:32:15;;;;;;;29.38;16.33;;;;;;;-4.22;100.00;102472.63;4995154;28;20026;-55
2021/12/22 09:34:42;;;;;;;31.58;17.08;;;;;;;-4.16;100.00;102469.25;4995025;28;20023;-55
2021/12/22 09:37:07;;;;;;;33.22;17.38;;;;;;;-4.07;100.00;102472.81;4995312;28;20048;-56
2021/12/22 09:39:33;;;;;;;30.17;16.55;;;;;;;-4.01;100.00;102464.03;4995149;28;20035;-56
2021/12/22 09:41:58;;;;;;;34.85;16.05;;;;;;;-3.95;99.95;102466.03;4994875;28;20030;-56
2021/12/22 09:44:30;;;;;;;31.77;17.42;;;;;;;-3.87;100.00;102467.91;4995196;28;20056;-55
2021/12/22 09:46:56;;;;;;;29.88;17.23;;;;;;;-3.77;99.86;102475.84;4995048;28;20057;-55
2021/12/22 09:52:23;;;;;;;29.35;16.38;;;;;;;-3.63;100.00;102453.53;4975890;28;20046;-56
2021/12/22 09:54:50;;;;;;;27.13;15.52;;;;;;;-3.45;99.56;102458.72;4994598;28;20027;-56
2021/12/22 09:57:17;;;;;;;32.58;17.10;;;;;;;-3.35;99.81;102463.09;4994755;28;20030;-56
2021/12/22 09:59:45;;;;;;;29.35;16.27;;;;;;;-3.33;99.61;102452.94;4994738;28;20099;-56
2021/12/22 10:02:15;;;;;;;30.63;16.13;;;;;;;-3.22;99.30;102455.28;4994697;28;20082;-56
2021/12/22 10:04:40;;;;;;;35.78;16.45;;;;;;;-3.17;98.79;102462.88;4994611;28;20038;-55
2021/12/22 10:07:08;;;;;;;29.63;15.43;;;;;;;-3.10;99.07;102457.59;4994555;28;20466;-56
2021/12/22 10:09:42;;;;;;;30.20;16.38;;;;;;;-3.01;98.90;102453.84;4994439;28;20577;-55
2021/12/22 10:12:17;;;;;;;28.42;16.83;;;;;;;-3.02;98.10;102447.56;4994398;28;20088;-56
2021/12/22 10:14:57;;;;;;;30.60;15.95;;;;;;;-2.93;98.34;102450.28;4994594;28;20393;-56
2021/12/22 10:17:44;;;;;;;28.88;15.35;;;;;;;-2.84;98.31;102447.34;4993127;28;20034;-56
2021/12/22 10:20:13;;;;;;;28.05;15.23;;;;;;;-2.81;98.14;102440.72;4994302;28;20038;-56
2021/12/22 10:22:41;;;;;;;29.77;16.10;;;;;;;-2.76;98.02;102443.75;4994260;28;20056;-56
2021/12/22 10:25:11;;;;;;;28.35;17.45;;;;;;;-2.68;97.76;102445.53;4994229;28;20023;-56
2021/12/22 10:27:39;;;;;;;30.23;15.85;;;;;;;-2.70;97.72;102434.06;4993575;28;20030;-56
2021/12/22 10:30:25;;;;;;;37.88;15.38;;;;;;;-2.56;97.47;102452.25;4994053;28;20390;-54
2021/12/22 10:33:15;;;;;;;27.00;14.93;;;;;;;-2.55;96.91;102440.41;4994146;28;20034;-56
2021/12/22 10:35:43;;;;;;;30.75;17.48;;;;;;;-2.48;96.54;102443.25;4994117;28;20033;-55
2021/12/22 10:38:11;;;;;;;28.73;16.08;;;;;;;-2.53;96.28;102432.06;4994113;28;20085;-56
2021/12/22 10:40:41;;;;;;;27.45;15.20;;;;;;;-2.39;96.64;102433.16;4993981;28;20026;-56
2021/12/22 10:43:09;;;;;;;27.67;14.23;;;;;;;-2.34;96.69;102430.78;4994260;28;20474;-56
2021/12/22 10:45:35;;;;;;;30.20;15.48;;;;;;;-2.27;96.31;102420.88;4993917;28;20034;-56
2021/12/22 10:50:57;;;;;;;29.50;16.75;;;;;;;-2.15;96.45;102420.47;4994107;28;20049;-56
2021/12/22 10:53:24;;;;;;;29.50;16.05;;;;;;;-2.12;95.70;102426.38;4993932;28;20109;-56
2021/12/22 10:55:52;;;;;;;25.25;14.77;;;;;;;-2.06;95.61;102419.38;4993836;28;20034;-56
2021/12/22 10:58:23;;;;;;;29.85;15.85;;;;;;;-2.00;95.85;102413.22;4993710;28;20030;-56
2021/12/22 11:01:18;;;;;;;27.73;15.23;;;;;;;-1.92;96.22;102409.59;4993895;28;20072;-56
2021/12/22 11:03:49;;;;;;;28.00;15.43;;;;;;;-1.97;94.67;102391.16;4980844;28;20068;-56
2021/12/22 11:06:23;;;;;;;29.38;15.00;;;;;;;-1.92;95.20;102386.00;4993626;28;20371;-56
2021/12/22 11:08:54;;;;;;;29.00;14.57;;;;;;;-1.84;94.74;102390.50;4993845;28;20386;-56
2021/12/22 11:11:19;;;;;;;30.33;16.20;;;;;;;-1.80;94.02;102389.13;4993854;28;20053;-56
2021/12/22 11:13:59;;;;;;;28.83;14.70;;;;;;;-1.78;93.89;102389.75;4993583;28;20058;-56
2021/12/22 11:16:25;;;;;;;29.77;14.60;;;;;;;-1.73;93.37;102394.63;4993617;28;20549;-56
2021/12/22 11:18:51;;;;;;;50.40;29.90;;;;;;;-1.67;93.13;102380.34;4993333;28;20065;-56
2021/12/22 11:21:29;;;;;;;31.13;16.80;;;;;;;-1.69;92.95;102376.97;4993628;28;20508;-56
2021/12/22 11:23:56;;;;;;;30.30;16.30;;;;;;;-1.56;93.12;102392.59;4992403;28;20385;-56
2021/12/22 11:26:21;;;;;;;26.83;14.80;;;;;;;-1.49;93.09;102382.66;4993410;28;20470;-56
2021/12/22 11:28:47;;;;;;;27.77;15.75;;;;;;;-1.47;91.52;102386.03;4992195;28;20073;-56
2021/12/22 11:31:12;;;;;;;28.50;14.73;;;;;;;-1.43;92.14;102381.06;4992277;28;20061;-56